createdAt,value
2016-07-27T00:00:17.047Z,17.27
2016-07-27T18:18:00.968Z,21.13
2016-07-27T18:18:19.141Z,21.02
2016-07-27T18:19:17.991Z,20.84
2016-07-27T18:20:18.131Z,20.83
2016-07-27T18:21:17.406Z,20.74
2016-07-27T18:22:23.855Z,20.75
2016-07-27T18:23:23.263Z,20.51
2016-07-27T18:24:24.497Z,20.35
2016-07-27T18:25:23.301Z,20.40
2016-07-27T18:26:13.750Z,20.35
2016-07-27T18:27:13.147Z,20.14
2016-07-27T18:28:24.937Z,20.20
2016-07-27T18:29:20.721Z,20.14
2016-07-27T18:30:17.124Z,20.02
2016-07-27T18:31:17.276Z,20.14
2016-07-27T18:32:18.011Z,20.21
2016-07-27T18:33:12.471Z,20.05
2016-07-27T18:34:17.278Z,20.11
2016-07-27T18:35:11.604Z,20.26
2016-07-27T18:36:15.556Z,20.13
2016-07-27T18:37:11.499Z,19.92
2016-07-27T18:38:24.326Z,19.94
2016-07-27T18:39:32.815Z,19.79
2016-07-27T18:41:20.280Z,19.99
2016-07-27T18:42:23.472Z,20.20
2016-07-27T18:44:18.361Z,19.70
2016-07-27T18:45:18.940Z,19.66
2016-07-27T18:46:15.233Z,19.63
2016-07-27T18:47:23.553Z,19.46
2016-07-27T18:48:11.945Z,19.36
2016-07-27T18:49:23.340Z,19.45
2016-07-27T18:50:23.109Z,19.49
2016-07-27T18:51:17.732Z,19.51
2016-07-27T18:52:24.876Z,19.59
2016-07-27T18:53:18.963Z,19.72
2016-07-27T18:54:17.559Z,19.69
2016-07-27T18:55:14.007Z,19.70
2016-07-27T18:56:22.909Z,19.73
2016-07-27T18:58:12.870Z,19.48
2016-07-27T19:00:37.661Z,19.55
2016-07-27T19:01:18.750Z,19.39
2016-07-27T19:02:23.083Z,19.23
2016-07-27T19:03:11.740Z,19.24
2016-07-27T19:04:18.957Z,19.31
2016-07-27T19:05:18.545Z,19.31
2016-07-27T19:06:27.462Z,19.30
2016-07-27T19:07:17.041Z,19.53
2016-07-27T19:08:12.107Z,19.41
2016-07-27T19:09:17.414Z,19.16
2016-07-27T19:11:12.900Z,19.26
2016-07-27T19:12:22.855Z,19.08
2016-07-27T19:14:20.301Z,19.22
2016-07-27T19:16:13.268Z,19.51
2016-07-27T19:17:23.583Z,19.44
2016-07-27T19:18:23.377Z,19.49
2016-07-27T19:19:19.161Z,19.47
2016-07-27T19:20:29.512Z,19.30
2016-07-27T19:21:12.519Z,19.31
2016-07-27T19:22:17.420Z,19.36
2016-07-27T19:23:22.827Z,19.25
2016-07-27T19:24:22.777Z,19.24
2016-07-27T19:25:46.156Z,19.18
2016-07-27T19:26:32.019Z,19.17
2016-07-27T19:28:11.820Z,19.08
2016-07-27T19:29:21.805Z,18.98
2016-07-27T19:30:18.547Z,19.09
2016-07-27T19:31:11.705Z,19.02
2016-07-27T19:32:17.432Z,19.00
2016-07-27T19:34:20.162Z,19.01
2016-07-27T19:35:12.118Z,18.88
2016-07-27T19:36:12.539Z,18.82
2016-07-27T19:37:24.833Z,18.85
2016-07-27T19:38:13.303Z,18.98
2016-07-27T19:39:12.149Z,18.95
2016-07-27T19:40:15.309Z,18.96
2016-07-27T19:41:17.134Z,18.90
2016-07-27T19:42:13.893Z,18.91
2016-07-27T19:43:16.823Z,18.89
2016-07-27T19:44:12.282Z,18.94
2016-07-27T19:45:16.495Z,18.96
2016-07-27T19:46:18.436Z,18.97
2016-07-27T19:47:17.118Z,19.01
2016-07-27T19:48:12.190Z,18.94
2016-07-27T19:49:17.474Z,18.90
2016-07-27T19:50:11.826Z,18.86
2016-07-27T19:51:41.877Z,19.01
2016-07-27T19:52:16.933Z,19.03
2016-07-27T19:53:29.834Z,18.98
2016-07-27T19:55:12.678Z,19.14
2016-07-27T19:55:50.652Z,19.10
2016-07-27T19:56:18.885Z,18.98
2016-07-27T19:57:17.420Z,19.12
2016-07-27T19:58:13.001Z,19.04
2016-07-27T19:59:20.323Z,18.95
2016-07-27T20:00:18.380Z,19.04
2016-07-27T20:01:28.953Z,19.15
2016-07-27T20:02:16.536Z,19.25
2016-07-27T20:03:20.770Z,19.22
2016-07-27T20:04:19.732Z,19.17
2016-07-27T20:05:23.464Z,19.23
2016-07-27T20:06:19.305Z,19.25
2016-07-27T20:07:15.003Z,19.26
2016-07-27T20:08:17.580Z,19.32
2016-07-27T20:09:17.354Z,19.31
2016-07-27T20:11:12.885Z,19.27
2016-07-27T20:12:20.062Z,19.16
2016-07-27T20:13:11.640Z,19.26
2016-07-27T20:14:12.878Z,19.30
2016-07-27T20:15:18.935Z,19.20
2016-07-27T20:16:17.713Z,19.20
2016-07-27T20:17:11.773Z,19.18
2016-07-27T20:18:11.965Z,19.20
2016-07-27T20:19:11.667Z,19.17
2016-07-27T20:20:16.936Z,19.06
2016-07-27T20:21:16.081Z,19.13
2016-07-27T20:22:15.722Z,19.03
2016-07-27T20:23:14.076Z,19.11
2016-07-27T20:24:23.216Z,19.11
2016-07-27T20:26:11.592Z,19.22
2016-07-27T20:27:14.979Z,19.23
2016-07-27T20:28:22.897Z,19.09
2016-07-27T20:29:11.641Z,19.06
2016-07-27T20:30:13.070Z,19.19
2016-07-27T20:31:23.154Z,19.19
2016-07-27T20:32:22.104Z,19.16
2016-07-27T20:33:12.300Z,19.24
2016-07-27T20:34:13.785Z,19.12
2016-07-27T20:35:16.466Z,19.22
2016-07-27T20:36:12.655Z,19.12
2016-07-27T20:37:22.552Z,19.04
2016-07-27T20:38:16.949Z,19.10
2016-07-27T20:39:17.949Z,19.03
2016-07-27T20:40:13.073Z,19.14
2016-07-27T20:41:33.768Z,19.15
2016-07-27T20:42:25.347Z,19.19
2016-07-27T20:43:16.970Z,19.18
2016-07-27T20:44:17.455Z,19.15
2016-07-27T20:45:17.305Z,19.08
2016-07-27T20:46:12.231Z,19.06
2016-07-27T20:47:16.776Z,19.08
2016-07-27T20:48:18.073Z,19.07
2016-07-27T20:49:12.740Z,19.08
2016-07-27T20:50:28.259Z,19.11
2016-07-27T20:51:11.967Z,19.13
2016-07-27T20:52:17.872Z,19.15
2016-07-27T20:53:16.468Z,19.12
2016-07-27T20:54:17.680Z,19.05
2016-07-27T20:55:12.900Z,19.06
2016-07-27T20:56:17.602Z,19.04
2016-07-27T20:57:17.337Z,18.98
2016-07-27T20:58:18.295Z,18.96
2016-07-27T20:59:23.196Z,18.91
2016-07-27T21:00:16.733Z,18.90
2016-07-27T21:01:16.507Z,18.93
2016-07-27T21:02:14.240Z,18.93
2016-07-27T21:03:22.988Z,18.97
2016-07-27T21:04:28.029Z,18.97
2016-07-27T21:05:28.119Z,18.95
2016-07-27T21:06:17.970Z,19.01
2016-07-27T21:07:12.032Z,18.99
2016-07-27T21:08:12.316Z,18.94
2016-07-27T21:09:12.973Z,18.88
2016-07-27T21:11:17.654Z,18.94
2016-07-27T21:12:17.301Z,18.90
2016-07-27T21:13:23.980Z,18.86
2016-07-27T21:14:18.200Z,18.80
2016-07-27T21:15:19.557Z,18.62
2016-07-27T21:16:12.552Z,18.73
2016-07-27T21:17:22.790Z,18.79
2016-07-27T21:18:12.581Z,18.79
2016-07-27T21:19:26.937Z,18.77
2016-07-27T21:20:11.324Z,18.85
2016-07-27T21:21:17.334Z,18.79
2016-07-27T21:22:19.900Z,18.78
2016-07-27T21:23:12.531Z,18.82
2016-07-27T21:24:12.129Z,18.80
2016-07-27T21:25:11.668Z,18.74
2016-07-27T21:26:22.802Z,18.72
2016-07-27T21:27:12.209Z,18.80
2016-07-27T21:28:17.908Z,18.85
2016-07-27T21:29:11.827Z,18.83
2016-07-27T21:30:17.289Z,18.73
2016-07-27T21:31:17.320Z,18.75
2016-07-27T21:32:12.295Z,18.76
2016-07-27T21:33:12.074Z,18.74
2016-07-27T21:34:16.438Z,18.74
2016-07-27T21:35:17.175Z,18.71
2016-07-27T21:36:23.960Z,18.71
2016-07-27T21:37:24.684Z,18.75
2016-07-27T21:38:11.909Z,18.71
2016-07-27T21:39:11.533Z,18.62
2016-07-27T21:40:17.713Z,18.65
2016-07-27T21:41:13.121Z,18.68
2016-07-27T21:42:17.656Z,18.66
2016-07-27T21:43:12.629Z,18.68
2016-07-27T21:44:12.480Z,18.62
2016-07-27T21:45:11.577Z,18.70
2016-07-27T21:46:17.667Z,18.69
2016-07-27T21:47:23.300Z,18.75
2016-07-27T21:48:17.187Z,18.63
2016-07-27T21:49:24.127Z,18.61
2016-07-27T21:50:11.642Z,18.57
2016-07-27T21:51:17.359Z,18.53
2016-07-27T21:52:11.661Z,18.56
2016-07-27T21:53:23.143Z,18.64
2016-07-27T21:54:12.012Z,18.51
2016-07-27T21:55:12.468Z,18.56
2016-07-27T21:56:12.189Z,18.60
2016-07-27T21:57:12.967Z,18.55
2016-07-27T21:58:17.010Z,18.61
2016-07-27T21:59:11.696Z,18.60
2016-07-27T22:00:16.808Z,18.63
2016-07-27T22:01:29.403Z,18.59
2016-07-27T22:02:12.085Z,18.61
2016-07-27T22:03:12.375Z,18.55
2016-07-27T22:04:17.595Z,18.51
2016-07-27T22:05:17.201Z,18.51
2016-07-27T22:06:12.682Z,18.49
2016-07-27T22:07:17.342Z,18.49
2016-07-27T22:08:12.526Z,18.44
2016-07-27T22:09:16.697Z,18.41
2016-07-27T22:10:12.948Z,18.50
2016-07-27T22:11:19.486Z,18.52
2016-07-27T22:12:13.054Z,18.50
2016-07-27T22:13:12.398Z,18.51
2016-07-27T22:14:16.690Z,18.49
2016-07-27T22:15:12.251Z,18.48
2016-07-27T22:16:16.689Z,18.41
2016-07-27T22:17:17.411Z,18.46
2016-07-27T22:18:12.604Z,18.48
2016-07-27T22:19:23.105Z,18.51
2016-07-27T22:20:28.170Z,18.52
2016-07-27T22:21:17.383Z,18.44
2016-07-27T22:22:21.029Z,18.42
2016-07-27T22:23:12.014Z,18.44
2016-07-27T22:24:17.356Z,18.47
2016-07-27T22:25:24.939Z,18.50
2016-07-27T22:26:12.956Z,18.41
2016-07-27T22:27:23.954Z,18.36
2016-07-27T22:28:12.518Z,18.32
2016-07-27T22:29:24.837Z,18.35
2016-07-27T22:30:16.683Z,18.28
2016-07-27T22:31:16.539Z,18.34
2016-07-27T22:32:21.043Z,18.41
2016-07-27T22:34:11.862Z,18.32
2016-07-27T22:35:14.370Z,18.30
2016-07-27T22:36:37.000Z,18.27
2016-07-27T22:37:12.430Z,18.31
2016-07-27T22:38:17.243Z,18.28
2016-07-27T22:39:11.679Z,18.24
2016-07-27T22:40:19.828Z,18.31
2016-07-27T22:41:11.892Z,18.33
2016-07-27T22:42:29.641Z,18.33
2016-07-27T22:43:23.498Z,18.26
2016-07-27T22:44:13.439Z,18.27
2016-07-27T22:45:17.631Z,18.32
2016-07-27T22:46:13.155Z,18.28
2016-07-27T22:47:23.255Z,18.24
2016-07-27T22:48:12.563Z,18.24
2016-07-27T22:49:23.509Z,18.30
2016-07-27T22:50:17.395Z,18.23
2016-07-27T22:51:17.001Z,18.13
2016-07-27T22:52:12.106Z,18.12
2016-07-27T22:53:11.858Z,18.07
2016-07-27T22:54:16.762Z,18.06
2016-07-27T22:55:11.905Z,18.19
2016-07-27T22:56:11.813Z,18.20
2016-07-27T22:57:24.843Z,18.22
2016-07-27T22:58:14.788Z,18.19
2016-07-27T22:59:16.736Z,18.10
2016-07-27T23:00:12.556Z,18.11
2016-07-27T23:01:19.496Z,18.09
2016-07-27T23:02:16.733Z,18.10
2016-07-27T23:03:17.225Z,18.16
2016-07-27T23:04:19.093Z,18.12
2016-07-27T23:05:20.764Z,18.12
2016-07-27T23:06:27.208Z,18.17
2016-07-27T23:08:26.456Z,18.12
2016-07-27T23:09:19.188Z,18.08
2016-07-27T23:10:18.712Z,18.03
2016-07-27T23:11:19.138Z,18.02
2016-07-27T23:12:23.099Z,18.02
2016-07-27T23:13:19.102Z,18.03
2016-07-27T23:14:21.180Z,18.03
2016-07-27T23:15:23.074Z,17.99
2016-07-27T23:16:16.760Z,18.00
2016-07-27T23:17:17.559Z,17.96
2016-07-27T23:18:13.581Z,17.95
2016-07-27T23:20:22.182Z,18.04
2016-07-27T23:21:25.585Z,17.99
2016-07-27T23:22:24.454Z,18.05
2016-07-27T23:23:19.537Z,18.01
2016-07-27T23:24:27.386Z,18.03
2016-07-27T23:25:16.872Z,17.98
2016-07-27T23:26:16.636Z,17.97
2016-07-27T23:27:28.082Z,18.03
2016-07-27T23:28:26.495Z,17.99
2016-07-27T23:29:20.796Z,18.08
2016-07-27T23:31:16.653Z,18.10
2016-07-27T23:32:13.192Z,18.07
2016-07-27T23:33:32.153Z,18.03
2016-07-27T23:34:23.464Z,18.00
2016-07-27T23:35:19.818Z,18.08
2016-07-27T23:36:18.895Z,18.06
2016-07-27T23:37:18.478Z,18.04
2016-07-27T23:38:17.243Z,18.02
2016-07-27T23:39:14.354Z,18.06
2016-07-27T23:40:23.219Z,18.09
2016-07-27T23:41:27.140Z,18.04
2016-07-27T23:43:17.757Z,17.98
2016-07-27T23:44:26.475Z,17.97
2016-07-27T23:45:18.192Z,18.00
2016-07-27T23:46:30.791Z,18.00
2016-07-27T23:47:20.501Z,18.01
2016-07-27T23:48:40.477Z,17.99
2016-07-27T23:49:19.180Z,18.11
2016-07-27T23:50:21.949Z,18.11
2016-07-27T23:52:19.265Z,18.04
2016-07-27T23:53:27.334Z,18.02
2016-07-27T23:54:18.563Z,18.01
2016-07-27T23:55:17.325Z,18.06
2016-07-27T23:57:18.533Z,18.06
2016-07-27T23:58:19.002Z,18.16
2016-07-27T23:59:26.354Z,18.14
